White Earth, North Dakota
Current Conditions -  °F | °C
As of 12:35 AM on Thursday 27 Nov 2014 (Local Time) from KD60 Reporting Station
Light Snow Light Snow  
Wind Chill: -6°   Ceiling: 300
Heat Index:   Visibility: 8mi
Dew Point:   Wind: 6mph
Humidity: 100%   Direction: 140°SE
Pressure: 30.35"   Gusts: NA
Location:  48.38°N, 102.77°W
Report Text: KD60 270635Z AUTO 14005KT 8SM -SN OVC003 M15/M15 A3035 RMK AO2
Loading
Personal Weather Stations






























Interactive Weather Map New forecast layout! Learn more

10-Day Weather Forecast

Advertisements
Track Severe Weather on mobile